Time;durP1;ratioP1;P1;durP2;ratioP2;P2;SDS_P1;SDS_P2;PMS_P1;PMS_P2;Temp;Humidity;BMP_temperature;BMP_pressure;BME280_temperature;BME280_humidity;BME280_pressure;Samples;Min_cycle;Max_cycle;Signal;HPM_P1;HPM_P2
2024/01/05 00:01:47;;;;;;;17.02;12.18;;;2.90;99.90;;;;;;5011287;28;20056;-68
2024/01/05 00:04:13;;;;;;;17.38;12.38;;;3.00;99.90;;;;;;4984457;28;20042;-68
2024/01/05 00:06:39;;;;;;;17.60;12.18;;;2.90;99.90;;;;;;4989991;28;20031;-68
2024/01/05 00:09:06;;;;;;;19.02;11.90;;;3.10;99.90;;;;;;5028319;28;20057;-69
2024/01/05 00:11:31;;;;;;;18.30;12.45;;;3.00;99.90;;;;;;4996756;28;20046;-68
2024/01/05 00:13:57;;;;;;;19.50;12.23;;;2.90;99.90;;;;;;4982954;28;20095;-68
2024/01/05 00:16:24;;;;;;;19.20;12.88;;;3.00;99.90;;;;;;5027213;28;20048;-68
2024/01/05 00:18:50;;;;;;;17.60;13.20;;;2.90;99.90;;;;;;4997973;28;20145;-68
2024/01/05 00:21:23;;;;;;;19.25;12.88;;;3.00;99.90;;;;;;5020169;28;20030;-68
2024/01/05 00:23:50;;;;;;;21.23;13.40;;;2.90;99.90;;;;;;4992075;28;20041;-68
2024/01/05 00:26:16;;;;;;;18.52;12.30;;;3.00;99.90;;;;;;5001610;28;20079;-68
2024/01/05 00:28:43;;;;;;;20.30;12.85;;;3.00;99.90;;;;;;4983303;28;20048;-68
2024/01/05 00:31:10;;;;;;;16.40;12.15;;;2.90;99.90;;;;;;5002098;28;20033;-69
2024/01/05 00:33:37;;;;;;;17.95;13.25;;;2.90;99.90;;;;;;5017071;28;20045;-69
2024/01/05 00:36:04;;;;;;;20.27;13.77;;;2.90;99.90;;;;;;5003227;28;20065;-68
2024/01/05 00:38:30;;;;;;;20.40;12.85;;;3.00;99.90;;;;;;4991923;28;20054;-68
2024/01/05 00:40:56;;;;;;;19.23;12.70;;;2.90;99.90;;;;;;5003788;28;20046;-68
2024/01/05 00:43:22;;;;;;;21.48;13.32;;;2.90;99.90;;;;;;5035541;28;20037;-68
2024/01/05 00:45:47;;;;;;;19.05;13.10;;;2.80;99.90;;;;;;4996907;28;20438;-68
2024/01/05 00:48:13;;;;;;;22.02;13.18;;;2.90;99.90;;;;;;5026740;28;20326;-68
2024/01/05 00:50:39;;;;;;;16.05;12.23;;;2.80;99.90;;;;;;5007245;28;20065;-68
2024/01/05 00:53:05;;;;;;;18.27;13.18;;;2.80;99.90;;;;;;4989161;28;20186;-69
2024/01/05 00:55:31;;;;;;;21.67;12.90;;;2.80;99.90;;;;;;4996811;28;20152;-68
2024/01/05 00:57:56;;;;;;;18.45;13.68;;;2.90;99.90;;;;;;5003085;28;20045;-68
2024/01/05 01:00:22;;;;;;;24.17;13.55;;;2.80;99.90;;;;;;4997952;28;20329;-68
2024/01/05 01:02:48;;;;;;;19.63;13.32;;;2.90;99.90;;;;;;4987684;28;20045;-68
2024/01/05 01:05:14;;;;;;;22.02;13.85;;;2.80;99.90;;;;;;4990330;28;20079;-68
2024/01/05 01:07:40;;;;;;;19.40;13.90;;;2.90;99.90;;;;;;5007650;28;20180;-68
2024/01/05 01:10:06;;;;;;;17.15;12.95;;;2.80;99.90;;;;;;4986607;28;20133;-69
2024/01/05 01:12:32;;;;;;;22.17;12.60;;;2.90;99.90;;;;;;5017488;28;20108;-69
2024/01/05 01:14:58;;;;;;;19.55;12.70;;;2.90;99.90;;;;;;4990991;28;20054;-68
2024/01/05 01:17:23;;;;;;;18.50;12.00;;;2.80;99.90;;;;;;4997783;28;20673;-68
2024/01/05 01:19:49;;;;;;;19.08;12.10;;;2.80;99.90;;;;;;4999021;28;20054;-69
2024/01/05 01:22:15;;;;;;;17.48;11.90;;;2.70;99.90;;;;;;4999010;28;20046;-68
2024/01/05 01:24:41;;;;;;;21.00;12.57;;;2.80;99.90;;;;;;5004483;28;20574;-68
2024/01/05 01:27:06;;;;;;;19.90;12.50;;;2.80;99.90;;;;;;5002662;28;20045;-68
2024/01/05 01:29:32;;;;;;;17.60;12.00;;;2.80;99.90;;;;;;4995948;28;20488;-68
2024/01/05 01:31:58;;;;;;;16.42;11.60;;;2.80;99.90;;;;;;4998556;28;20508;-68
2024/01/05 01:34:24;;;;;;;17.08;11.25;;;2.80;99.90;;;;;;4999545;28;20488;-68
2024/01/05 01:36:51;;;;;;;18.80;11.50;;;2.80;99.90;;;;;;4996937;28;20068;-68
2024/01/05 01:39:17;;;;;;;15.63;11.15;;;2.80;99.90;;;;;;4987427;28;20709;-68
2024/01/05 01:41:43;;;;;;;16.73;10.63;;;2.70;99.90;;;;;;4996566;28;20085;-68
2024/01/05 01:44:08;;;;;;;15.38;10.57;;;2.80;99.90;;;;;;5000285;28;20050;-68
2024/01/05 01:46:36;;;;;;;17.08;10.18;;;2.80;99.90;;;;;;5010263;28;20117;-68
2024/01/05 01:49:03;;;;;;;17.08;10.82;;;2.80;99.90;;;;;;5027776;28;20054;-69
2024/01/05 01:51:31;;;;;;;16.42;10.88;;;2.80;99.90;;;;;;4986824;28;20100;-69
2024/01/05 01:54:05;;;;;;;19.40;10.73;;;2.80;99.90;;;;;;4995138;28;20050;-68
2024/01/05 01:56:34;;;;;;;18.08;11.18;;;2.70;99.90;;;;;;5002035;28;20045;-68
2024/01/05 01:59:00;;;;;;;19.55;10.60;;;2.70;99.90;;;;;;5014520;28;20089;-68
2024/01/05 02:01:26;;;;;;;20.58;11.30;;;2.80;99.90;;;;;;4983646;28;20037;-68
2024/01/05 02:03:53;;;;;;;21.35;10.85;;;2.70;99.90;;;;;;4999556;28;20042;-68
2024/01/05 02:06:20;;;;;;;16.27;9.50;;;2.80;99.90;;;;;;5026119;28;20501;-68
2024/01/05 02:08:47;;;;;;;16.45;9.82;;;2.80;99.90;;;;;;4993339;28;20124;-68
2024/01/05 02:11:14;;;;;;;20.67;10.65;;;2.80;99.90;;;;;;5042200;28;20042;-69
2024/01/05 02:13:40;;;;;;;20.48;10.65;;;2.70;99.90;;;;;;5000771;28;20113;-68
2024/01/05 02:16:06;;;;;;;17.23;10.85;;;2.70;99.90;;;;;;5001630;28;20113;-68
2024/01/05 02:18:32;;;;;;;20.20;11.40;;;2.80;99.90;;;;;;4985790;28;20404;-68
2024/01/05 02:21:03;;;;;;;17.52;11.00;;;2.70;99.90;;;;;;4987320;28;20041;-68
2024/01/05 02:23:31;;;;;;;17.15;10.60;;;2.60;99.90;;;;;;4998565;28;20065;-68
2024/01/05 02:26:03;;;;;;;18.75;11.38;;;2.70;99.90;;;;;;4997713;28;20510;-68
2024/01/05 02:28:28;;;;;;;18.13;10.90;;;2.60;99.90;;;;;;4999398;28;20049;-68
2024/01/05 02:30:55;;;;;;;19.95;10.70;;;2.70;99.90;;;;;;5025676;28;20042;-68
2024/01/05 02:33:22;;;;;;;20.48;10.77;;;2.60;99.90;;;;;;4997331;28;20046;-68
2024/01/05 02:35:48;;;;;;;19.05;11.80;;;2.70;99.90;;;;;;5004402;28;20085;-68
2024/01/05 02:38:13;;;;;;;17.58;11.23;;;2.70;99.90;;;;;;5007662;28;20093;-68
2024/01/05 02:40:39;;;;;;;21.95;12.13;;;2.70;99.90;;;;;;5002898;28;20104;-68
2024/01/05 02:43:05;;;;;;;20.95;11.80;;;2.80;99.90;;;;;;4988681;28;20135;-68
2024/01/05 02:45:32;;;;;;;20.88;11.60;;;2.60;99.90;;;;;;4987415;28;20033;-68
2024/01/05 02:47:57;;;;;;;19.13;11.35;;;2.70;99.90;;;;;;4999875;28;20046;-68
2024/01/05 02:50:23;;;;;;;19.55;12.13;;;2.70;99.90;;;;;;5013056;28;20041;-68
2024/01/05 02:52:49;;;;;;;25.17;12.15;;;2.70;99.90;;;;;;4999830;28;20055;-68
2024/01/05 02:55:15;;;;;;;20.27;12.38;;;2.70;99.90;;;;;;5010693;28;20042;-68
2024/01/05 02:57:43;;;;;;;22.45;13.15;;;2.80;99.90;;;;;;4998089;28;20242;-68
2024/01/05 03:00:09;;;;;;;19.50;12.45;;;2.80;99.90;;;;;;5002159;28;20295;-68
2024/01/05 03:02:35;;;;;;;20.00;13.30;;;2.70;99.90;;;;;;5021241;28;20042;-68
2024/01/05 03:05:01;;;;;;;23.13;12.75;;;2.80;99.90;;;;;;5006109;28;20190;-69
2024/01/05 03:07:27;;;;;;;21.25;11.90;;;2.70;99.90;;;;;;4997940;28;20100;-68
2024/01/05 03:09:52;;;;;;;22.88;13.43;;;2.70;99.90;;;;;;4995750;28;20405;-68
2024/01/05 03:12:18;;;;;;;20.45;13.75;;;2.80;99.90;;;;;;4996655;28;20049;-68
2024/01/05 03:14:44;;;;;;;22.88;13.82;;;2.70;99.90;;;;;;4997596;28;20046;-68
2024/01/05 03:17:10;;;;;;;21.02;13.27;;;2.70;99.90;;;;;;4998719;28;20042;-68
2024/01/05 03:19:36;;;;;;;21.98;13.85;;;2.70;99.90;;;;;;4988150;28;20047;-68
2024/01/05 03:22:02;;;;;;;23.67;14.75;;;2.80;99.90;;;;;;4983417;28;20048;-68
2024/01/05 03:24:28;;;;;;;25.25;14.27;;;2.80;99.90;;;;;;5013868;28;20057;-68
2024/01/05 03:26:54;;;;;;;27.08;15.50;;;2.70;99.90;;;;;;5037600;28;20104;-68
2024/01/05 03:29:19;;;;;;;25.52;14.18;;;2.80;99.90;;;;;;4996563;28;20104;-68
2024/01/05 03:31:46;;;;;;;24.90;14.40;;;2.80;99.90;;;;;;5002789;28;20049;-68
2024/01/05 03:34:12;;;;;;;24.98;14.70;;;2.80;99.90;;;;;;5000872;28;20474;-68
2024/01/05 03:36:38;;;;;;;24.20;14.40;;;2.80;99.90;;;;;;4985976;28;20718;-68
2024/01/05 03:39:07;;;;;;;24.88;14.93;;;2.90;99.90;;;;;;4984813;28;20052;-68
2024/01/05 03:41:33;;;;;;;24.20;16.27;;;2.80;99.90;;;;;;5001208;28;20053;-68
2024/01/05 03:43:59;;;;;;;26.50;16.63;;;2.80;99.90;;;;;;4990653;28;20108;-68
2024/01/05 03:46:25;;;;;;;25.85;16.38;;;2.80;99.90;;;;;;5000855;28;20056;-68
2024/01/05 03:48:51;;;;;;;24.23;15.40;;;2.90;99.90;;;;;;4984995;28;20042;-68
2024/01/05 03:51:16;;;;;;;22.85;15.48;;;2.90;99.90;;;;;;4983113;28;20128;-68
2024/01/05 03:53:42;;;;;;;24.00;16.10;;;2.90;99.90;;;;;;4999792;28;20029;-68
2024/01/05 03:56:08;;;;;;;25.90;15.77;;;2.80;99.90;;;;;;4998886;28;20432;-68
2024/01/05 03:58:34;;;;;;;26.35;15.98;;;2.90;99.90;;;;;;5000230;28;20034;-68
2024/01/05 04:01:04;;;;;;;23.10;15.63;;;3.00;99.90;;;;;;5000727;28;20097;-68
2024/01/05 04:03:30;;;;;;;22.20;14.93;;;3.00;99.90;;;;;;4988473;28;20046;-68
2024/01/05 04:05:57;;;;;;;23.90;15.57;;;2.90;99.90;;;;;;4982260;28;20034;-68
2024/01/05 04:08:23;;;;;;;23.77;14.70;;;2.90;99.90;;;;;;4989552;28;20034;-68
2024/01/05 04:10:49;;;;;;;20.70;14.52;;;2.90;99.90;;;;;;5009790;28;20088;-68
2024/01/05 04:13:15;;;;;;;21.08;15.00;;;2.90;99.90;;;;;;4983904;28;20038;-68
2024/01/05 04:15:40;;;;;;;21.42;14.13;;;2.80;99.90;;;;;;5006034;28;20048;-69
2024/01/05 04:18:06;;;;;;;23.45;15.63;;;3.00;99.90;;;;;;5014792;28;20045;-68
2024/01/05 04:20:33;;;;;;;23.73;15.10;;;2.90;99.90;;;;;;5000837;28;20394;-68
2024/01/05 04:23:00;;;;;;;23.88;15.43;;;3.00;99.90;;;;;;4990797;28;20053;-68
2024/01/05 04:25:26;;;;;;;23.08;15.90;;;2.90;99.90;;;;;;4990437;28;20184;-68
2024/01/05 04:27:52;;;;;;;22.67;15.23;;;3.00;99.90;;;;;;4984026;28;20117;-68
2024/01/05 04:30:20;;;;;;;26.13;15.82;;;2.90;99.90;;;;;;4994502;28;20046;-68
2024/01/05 04:32:47;;;;;;;21.08;14.25;;;2.90;99.90;;;;;;5030879;28;20124;-68
2024/01/05 04:35:13;;;;;;;22.77;15.07;;;3.00;99.90;;;;;;4988293;28;20042;-68
2024/01/05 04:37:39;;;;;;;21.95;14.77;;;3.00;99.90;;;;;;4985717;28;20073;-69
2024/01/05 04:40:06;;;;;;;19.98;13.70;;;2.90;99.90;;;;;;5017298;28;20513;-68
2024/01/05 04:42:32;;;;;;;22.27;14.63;;;3.00;99.90;;;;;;4991350;28;20113;-68
2024/01/05 04:44:58;;;;;;;20.38;14.68;;;3.00;99.90;;;;;;5016952;28;20045;-68
2024/01/05 04:47:24;;;;;;;20.83;14.93;;;3.00;99.90;;;;;;4984568;28;20172;-68
2024/01/05 04:49:50;;;;;;;21.83;14.50;;;3.00;99.90;;;;;;4995476;28;20474;-68
2024/01/05 04:52:16;;;;;;;22.67;14.43;;;2.90;99.90;;;;;;5029383;28;20045;-68
2024/01/05 04:54:42;;;;;;;23.15;14.60;;;3.00;99.90;;;;;;5018508;28;20110;-68
2024/01/05 04:57:08;;;;;;;18.77;13.48;;;3.00;99.90;;;;;;4998276;28;20490;-69
2024/01/05 04:59:34;;;;;;;21.52;14.00;;;3.00;99.90;;;;;;5000469;28;20061;-68
2024/01/05 05:02:00;;;;;;;21.08;14.57;;;2.90;99.90;;;;;;4998649;28;20128;-68
2024/01/05 05:04:25;;;;;;;19.38;13.88;;;2.90;99.90;;;;;;5038257;28;20443;-68
2024/01/05 05:06:51;;;;;;;20.40;14.63;;;3.00;99.90;;;;;;5005927;28;20072;-68
2024/01/05 05:09:17;;;;;;;22.63;15.00;;;2.90;99.90;;;;;;5003272;28;20400;-68
2024/01/05 05:11:43;;;;;;;20.92;14.88;;;2.90;99.90;;;;;;5005115;28;20124;-68
2024/01/05 05:14:08;;;;;;;20.27;14.60;;;3.10;99.90;;;;;;5003047;28;20038;-68
2024/01/05 05:16:35;;;;;;;20.95;14.27;;;3.10;99.90;;;;;;5001125;28;20052;-68
2024/01/05 05:19:01;;;;;;;20.98;14.65;;;3.00;99.90;;;;;;5002652;28;20042;-68
2024/01/05 05:21:28;;;;;;;22.83;15.07;;;3.00;99.90;;;;;;4987309;28;20385;-68
2024/01/05 05:23:54;;;;;;;21.05;16.00;;;3.00;99.90;;;;;;4988500;28;20635;-68
2024/01/05 05:26:19;;;;;;;23.17;15.65;;;3.00;99.90;;;;;;4998790;28;20045;-68
2024/01/05 05:28:45;;;;;;;20.30;14.82;;;3.10;99.90;;;;;;5004280;28;20472;-68
2024/01/05 05:31:11;;;;;;;22.15;15.05;;;3.00;99.90;;;;;;4983324;28;20088;-68
2024/01/05 05:33:37;;;;;;;20.77;14.02;;;3.10;99.90;;;;;;5005620;28;20038;-68
2024/01/05 05:36:03;;;;;;;21.65;14.73;;;3.00;99.90;;;;;;4988907;28;20379;-68
2024/01/05 05:38:28;;;;;;;20.20;13.95;;;3.10;99.90;;;;;;5008790;28;20083;-68
2024/01/05 05:40:54;;;;;;;19.85;14.65;;;3.10;99.90;;;;;;4989940;28;20382;-68
2024/01/05 05:43:20;;;;;;;21.15;14.65;;;3.10;99.90;;;;;;4998527;28;20041;-68
2024/01/05 05:45:46;;;;;;;22.35;14.90;;;3.00;99.90;;;;;;5002183;28;20124;-68
2024/01/05 05:48:14;;;;;;;19.88;14.45;;;3.10;99.90;;;;;;4996784;28;20056;-68
2024/01/05 05:50:40;;;;;;;26.33;15.25;;;3.10;99.90;;;;;;4998206;28;20057;-68
2024/01/05 05:53:06;;;;;;;22.05;14.40;;;3.10;99.90;;;;;;4999830;28;20397;-68
2024/01/05 05:55:32;;;;;;;21.73;14.88;;;3.10;99.90;;;;;;5009624;28;20053;-68
2024/01/05 05:57:58;;;;;;;21.73;14.65;;;3.00;99.90;;;;;;5025922;28;20534;-68
2024/01/05 06:00:26;;;;;;;23.92;14.88;;;3.00;99.90;;;;;;4981123;28;20103;-68
2024/01/05 06:02:52;;;;;;;25.50;15.95;;;3.10;99.90;;;;;;4986314;28;20455;-68
2024/01/05 06:05:18;;;;;;;24.90;16.35;;;3.10;99.90;;;;;;4995326;28;20053;-68
2024/01/05 06:07:44;;;;;;;21.85;15.73;;;3.10;99.90;;;;;;4984838;28;20550;-68
2024/01/05 06:10:10;;;;;;;23.27;15.70;;;3.10;99.90;;;;;;4986016;28;20049;-68
2024/01/05 06:12:36;;;;;;;22.67;15.63;;;3.10;99.90;;;;;;5002534;28;20618;-68
2024/01/05 06:15:02;;;;;;;23.63;15.43;;;3.10;99.90;;;;;;5011531;28;20088;-68
2024/01/05 06:17:28;;;;;;;22.35;15.25;;;3.20;99.90;;;;;;4999598;28;20405;-68
2024/01/05 06:19:54;;;;;;;23.70;16.15;;;3.20;99.90;;;;;;4998880;28;20054;-68
2024/01/05 06:22:19;;;;;;;23.60;15.80;;;3.20;99.90;;;;;;4996911;28;20355;-68
2024/01/05 06:24:46;;;;;;;21.83;14.50;;;3.20;99.90;;;;;;4997181;28;20379;-68
2024/01/05 06:27:12;;;;;;;24.77;15.82;;;3.20;99.90;;;;;;4999759;28;20061;-68
2024/01/05 06:29:38;;;;;;;22.42;15.73;;;3.20;99.90;;;;;;4986856;28;20092;-68
2024/01/05 06:32:04;;;;;;;23.23;15.30;;;3.30;99.90;;;;;;4989021;28;20042;-68
2024/01/05 06:34:30;;;;;;;21.88;16.05;;;3.20;99.90;;;;;;4997332;28;20064;-68
2024/01/05 06:36:56;;;;;;;23.13;15.25;;;3.30;99.90;;;;;;4983488;28;20058;-68
2024/01/05 06:39:21;;;;;;;23.33;15.98;;;3.30;99.90;;;;;;5014766;28;20081;-68
2024/01/05 06:41:47;;;;;;;23.55;15.25;;;3.30;99.90;;;;;;5002599;28;20507;-69
2024/01/05 06:44:13;;;;;;;21.30;14.30;;;3.20;99.90;;;;;;4998775;28;20046;-68
2024/01/05 06:46:39;;;;;;;24.63;14.65;;;3.20;99.90;;;;;;4991574;28;20037;-68
2024/01/05 06:49:08;;;;;;;21.90;15.48;;;3.30;99.90;;;;;;4991971;28;20046;-68
2024/01/05 06:51:37;;;;;;;22.30;14.80;;;3.30;99.90;;;;;;4996578;28;20050;-68
2024/01/05 06:54:04;;;;;;;20.92;14.25;;;3.30;99.90;;;;;;5009278;28;20903;-68
2024/01/05 06:56:32;;;;;;;21.13;14.05;;;3.40;99.90;;;;;;4983359;28;20044;-68
2024/01/05 06:58:59;;;;;;;20.60;14.25;;;3.30;99.90;;;;;;5015060;28;20037;-68
2024/01/05 07:01:25;;;;;;;21.75;14.55;;;3.30;99.90;;;;;;4991782;28;20049;-68
2024/01/05 07:03:51;;;;;;;20.05;13.35;;;3.40;99.90;;;;;;4999829;28;20046;-68
2024/01/05 07:06:16;;;;;;;20.52;14.35;;;3.30;99.90;;;;;;5001570;28;20041;-68
2024/01/05 07:08:42;;;;;;;23.52;14.27;;;3.40;99.90;;;;;;4998725;28;20456;-68
2024/01/05 07:11:22;;;;;;;21.60;14.27;;;3.40;99.90;;;;;;4985553;28;20725;-68
2024/01/05 07:13:48;;;;;;;21.58;14.00;;;3.40;99.90;;;;;;5002123;28;20406;-68
2024/01/05 07:16:21;;;;;;;19.60;13.77;;;3.30;99.90;;;;;;4999131;28;20133;-68
2024/01/05 07:18:47;;;;;;;24.50;15.50;;;3.30;99.90;;;;;;4996973;28;20460;-68
2024/01/05 07:21:14;;;;;;;20.92;14.43;;;3.40;99.90;;;;;;5000251;28;20052;-68
2024/01/05 07:23:40;;;;;;;20.50;14.93;;;3.40;99.90;;;;;;5000305;28;20109;-68
2024/01/05 07:26:06;;;;;;;22.50;14.68;;;3.50;99.90;;;;;;5002949;28;20117;-68
2024/01/05 07:28:31;;;;;;;21.42;14.40;;;3.50;99.90;;;;;;5010076;28;20357;-68
2024/01/05 07:30:57;;;;;;;27.42;15.73;;;3.40;99.90;;;;;;5012384;28;20499;-68
2024/01/05 07:33:23;;;;;;;21.40;14.18;;;3.50;99.90;;;;;;5014982;28;20076;-68
2024/01/05 07:35:49;;;;;;;19.33;14.15;;;3.50;99.90;;;;;;4994544;28;20081;-68
2024/01/05 07:38:15;;;;;;;22.70;14.68;;;3.50;99.90;;;;;;4999193;28;20058;-68
2024/01/05 07:40:40;;;;;;;21.98;13.63;;;3.50;99.90;;;;;;4984300;28;20042;-68
2024/01/05 07:43:10;;;;;;;21.88;14.07;;;3.60;99.90;;;;;;4998907;28;20053;-69
2024/01/05 07:45:36;;;;;;;26.15;15.50;;;3.50;99.90;;;;;;4982702;28;20058;-68
2024/01/05 07:48:01;;;;;;;22.85;14.68;;;3.50;99.90;;;;;;5011022;28;20066;-68
2024/01/05 07:50:27;;;;;;;21.98;14.65;;;3.60;99.90;;;;;;4994334;28;20466;-68
2024/01/05 07:52:53;;;;;;;25.23;16.08;;;3.50;99.90;;;;;;4994458;28;20041;-68
2024/01/05 07:55:19;;;;;;;29.75;16.98;;;3.60;99.90;;;;;;4974696;28;20087;-68
2024/01/05 07:57:45;;;;;;;27.90;15.63;;;3.60;99.90;;;;;;5011840;28;20130;-68
2024/01/05 08:00:11;;;;;;;27.33;16.65;;;3.70;99.90;;;;;;4996160;28;20128;-68
2024/01/05 08:02:37;;;;;;;28.33;17.38;;;3.70;99.90;;;;;;4995852;28;20042;-68
2024/01/05 08:05:04;;;;;;;29.63;17.23;;;3.70;99.90;;;;;;5011038;28;20092;-68
2024/01/05 08:07:30;;;;;;;30.35;17.70;;;3.70;99.90;;;;;;4996379;28;20053;-68
2024/01/05 08:09:56;;;;;;;30.27;17.83;;;3.70;99.90;;;;;;5006283;28;20478;-68
2024/01/05 08:12:22;;;;;;;23.60;15.68;;;3.80;99.90;;;;;;5010173;28;20054;-68
2024/01/05 08:14:48;;;;;;;28.77;16.77;;;3.70;99.90;;;;;;4977326;28;20436;-68
2024/01/05 08:17:14;;;;;;;27.30;16.60;;;3.80;99.90;;;;;;4993955;28;20046;-68
2024/01/05 08:19:40;;;;;;;26.42;17.52;;;3.80;99.90;;;;;;5003424;28;20049;-68
2024/01/05 08:22:05;;;;;;;27.48;18.13;;;3.70;99.90;;;;;;4992957;28;20133;-68
2024/01/05 08:24:31;;;;;;;27.60;16.80;;;3.90;99.90;;;;;;5004533;28;20045;-68
2024/01/05 08:26:57;;;;;;;26.40;18.05;;;3.90;99.90;;;;;;4995211;28;20034;-69
2024/01/05 08:29:23;;;;;;;30.48;17.70;;;3.90;99.90;;;;;;4975400;28;20070;-68
2024/01/05 08:31:49;;;;;;;27.15;17.63;;;3.90;99.90;;;;;;4999517;28;20153;-68
2024/01/05 08:34:16;;;;;;;28.23;16.90;;;3.90;99.90;;;;;;5025353;28;20316;-68
2024/01/05 08:36:42;;;;;;;31.58;19.00;;;3.90;99.90;;;;;;5029306;28;20054;-68
2024/01/05 08:39:08;;;;;;;27.90;17.67;;;3.90;99.90;;;;;;5031655;28;20512;-68
2024/01/05 08:41:34;;;;;;;29.70;17.95;;;3.90;99.90;;;;;;5002814;28;20037;-68
2024/01/05 08:43:59;;;;;;;32.20;18.48;;;4.00;99.90;;;;;;5025448;28;20469;-68
2024/01/05 08:46:28;;;;;;;30.42;18.08;;;4.00;99.90;;;;;;5012989;28;20038;-68
2024/01/05 08:48:54;;;;;;;31.98;18.98;;;3.90;99.90;;;;;;4983551;28;20038;-68
2024/01/05 08:51:20;;;;;;;27.90;17.20;;;4.00;99.90;;;;;;5019527;28;20049;-68
2024/01/05 08:53:46;;;;;;;23.95;15.70;;;4.00;99.90;;;;;;4997814;28;20042;-68
2024/01/05 08:56:12;;;;;;;24.98;15.73;;;3.90;99.90;;;;;;4998583;28;20057;-68
2024/01/05 08:58:39;;;;;;;26.02;17.17;;;4.00;99.90;;;;;;5003892;28;20447;-68
2024/01/05 09:01:05;;;;;;;31.77;15.50;;;4.00;99.90;;;;;;4999136;28;20049;-68
2024/01/05 09:03:31;;;;;;;22.75;14.40;;;4.00;99.90;;;;;;4990976;28;20065;-69
2024/01/05 09:05:57;;;;;;;24.35;15.20;;;4.00;99.90;;;;;;5002442;28;20141;-68
2024/01/05 09:08:23;;;;;;;22.20;14.40;;;4.00;99.90;;;;;;5003381;28;20038;-68
2024/01/05 09:10:49;;;;;;;22.55;14.52;;;4.10;99.90;;;;;;5036952;28;20604;-68
2024/01/05 09:13:15;;;;;;;23.92;15.43;;;4.20;99.90;;;;;;4997806;28;20120;-68
2024/01/05 09:15:40;;;;;;;23.02;15.80;;;4.20;99.90;;;;;;4998650;28;20042;-68
2024/01/05 09:18:07;;;;;;;26.90;15.55;;;4.10;99.90;;;;;;4992782;28;20459;-68
2024/01/05 09:20:32;;;;;;;24.65;15.98;;;4.10;99.90;;;;;;4996182;28;20084;-68
2024/01/05 09:22:58;;;;;;;30.83;17.70;;;4.20;99.90;;;;;;4990943;28;20177;-68
2024/01/05 09:25:24;;;;;;;26.38;15.20;;;4.10;99.90;;;;;;5019073;28;20037;-68
2024/01/05 09:27:50;;;;;;;28.70;15.65;;;4.10;99.90;;;;;;4994841;28;20173;-68
2024/01/05 09:30:16;;;;;;;21.20;13.85;;;4.20;99.90;;;;;;4992241;28;20046;-68
2024/01/05 09:32:41;;;;;;;22.88;14.43;;;4.10;99.90;;;;;;4996367;28;20041;-68
2024/01/05 09:35:08;;;;;;;24.58;14.82;;;4.20;99.90;;;;;;4998002;28;20057;-68
2024/01/05 09:37:36;;;;;;;20.15;13.68;;;4.20;99.90;;;;;;4998230;28;20066;-68
2024/01/05 09:40:02;;;;;;;22.58;13.98;;;4.30;99.90;;;;;;4986823;28;20112;-68
2024/01/05 09:42:28;;;;;;;23.95;14.15;;;4.30;99.90;;;;;;4994520;28;20100;-68
2024/01/05 09:44:55;;;;;;;22.65;13.80;;;4.30;99.90;;;;;;4994779;28;20049;-68
2024/01/05 09:47:21;;;;;;;22.15;13.73;;;4.30;99.90;;;;;;4984891;28;20038;-68
2024/01/05 09:49:51;;;;;;;21.02;13.90;;;4.40;99.90;;;;;;5029694;28;20088;-68
2024/01/05 09:52:22;;;;;;;21.45;14.07;;;4.50;99.90;;;;;;4997303;28;20076;-69
2024/01/05 09:54:49;;;;;;;23.90;14.95;;;4.40;99.90;;;;;;5000324;28;20042;-68
2024/01/05 09:57:18;;;;;;;23.13;14.93;;;4.40;99.90;;;;;;4986585;28;20041;-68
2024/01/05 09:59:46;;;;;;;24.92;15.68;;;4.60;99.90;;;;;;4999573;28;20053;-68
2024/01/05 10:02:16;;;;;;;22.55;15.23;;;4.50;99.90;;;;;;4991150;28;20377;-68
2024/01/05 10:04:42;;;;;;;22.38;14.90;;;4.60;99.90;;;;;;4996469;28;20620;-68
2024/01/05 10:07:08;;;;;;;21.85;15.10;;;4.60;99.90;;;;;;4988713;28;20050;-68
2024/01/05 10:09:51;;;;;;;23.83;14.80;;;4.70;99.90;;;;;;4994438;28;20046;-68
2024/01/05 10:12:20;;;;;;;23.73;15.43;;;4.60;99.90;;;;;;4999295;28;20156;-68
2024/01/05 10:14:49;;;;;;;27.38;16.88;;;4.70;99.90;;;;;;4992430;28;20136;-68
2024/01/05 10:17:18;;;;;;;24.98;16.05;;;4.70;99.90;;;;;;4982020;28;20038;-69
2024/01/05 10:19:43;;;;;;;25.02;15.77;;;4.80;99.90;;;;;;4995784;28;20033;-68
2024/01/05 10:22:13;;;;;;;28.35;16.17;;;4.90;99.90;;;;;;4982214;28;20049;-68
2024/01/05 10:24:40;;;;;;;25.42;16.52;;;4.90;99.90;;;;;;4991536;28;20038;-68
2024/01/05 10:27:11;;;;;;;27.17;16.38;;;5.00;99.90;;;;;;4993510;28;20162;-68
2024/01/05 10:29:42;;;;;;;27.33;17.23;;;5.00;99.90;;;;;;5000412;28;20462;-68
2024/01/05 10:32:17;;;;;;;25.25;16.23;;;5.00;99.90;;;;;;5001086;28;20042;-68
2024/01/05 10:34:43;;;;;;;;;;;5.10;99.90;;;;;;4994185;28;20041;-68
2024/01/05 10:37:09;;;;;;;24.83;15.90;;;5.00;99.90;;;;;;4991287;28;19980;-68
2024/01/05 10:39:35;;;;;;;25.63;15.70;;;5.00;99.90;;;;;;4987732;28;20508;-69
2024/01/05 10:42:35;;;;;;;26.33;15.32;;;5.00;99.90;;;;;;5025599;28;20046;-68
2024/01/05 10:45:01;;;;;;;20.65;13.52;;;5.10;99.90;;;;;;4957537;28;20058;-68
2024/01/05 10:47:31;;;;;;;26.02;13.68;;;5.00;99.90;;;;;;5017408;28;20053;-69
2024/01/05 10:49:57;;;;;;;21.40;13.32;;;5.00;99.90;;;;;;4999360;28;20042;-68
2024/01/05 10:52:26;;;;;;;19.75;13.70;;;5.10;99.90;;;;;;4993034;28;20042;-68
2024/01/05 10:54:52;;;;;;;22.10;14.35;;;5.10;99.90;;;;;;5009689;28;20042;-68
2024/01/05 10:57:19;;;;;;;21.40;14.35;;;5.20;99.90;;;;;;4995513;28;20050;-68
2024/01/05 10:59:50;;;;;;;18.25;13.05;;;5.20;99.90;;;;;;5002018;28;20168;-68
2024/01/05 11:02:34;;;;;;;22.75;13.40;;;5.30;99.90;;;;;;4981156;28;20496;-69
2024/01/05 11:05:09;;;;;;;18.77;12.95;;;5.30;99.90;;;;;;4993793;28;20136;-68
2024/01/05 11:07:36;;;;;;;;;;;5.30;99.90;;;;;;4995942;28;20058;-68
2024/01/05 11:10:16;;;;;;;18.77;13.02;;;5.40;99.90;;;;;;4994407;28;19921;-68
2024/01/05 11:13:11;;;;;;;19.58;12.95;;;5.40;99.90;;;;;;4995145;28;20156;-68
2024/01/05 11:15:57;;;;;;;19.08;13.25;;;5.50;99.90;;;;;;4998036;28;20065;-69
2024/01/05 11:18:26;;;;;;;20.60;13.50;;;5.40;99.90;;;;;;4996515;28;20081;-68
2024/01/05 11:21:11;;;;;;;20.73;12.98;;;5.30;99.90;;;;;;4990660;28;20056;-68
2024/01/05 11:23:40;;;;;;;20.92;13.90;;;5.40;99.90;;;;;;5001563;28;20085;-68
2024/01/05 11:26:06;;;;;;;23.15;14.45;;;5.40;99.90;;;;;;4979927;28;20128;-68
2024/01/05 11:28:33;;;;;;;21.75;13.55;;;5.40;99.90;;;;;;5001173;28;20973;-69
2024/01/05 11:30:59;;;;;;;27.80;14.75;;;5.50;99.90;;;;;;4988360;28;20042;-69
2024/01/05 11:33:44;;;;;;;23.42;14.93;;;5.40;99.90;;;;;;5010969;28;20379;-69
2024/01/05 11:36:10;;;;;;;;;;;5.50;99.90;;;;;;4991331;28;20054;-69
2024/01/05 11:38:43;;;;;;;23.65;15.20;;;5.50;99.90;;;;;;5010046;28;20000;-68
2024/01/05 11:41:19;;;;;;;22.15;14.80;;;5.50;99.90;;;;;;5039062;28;20038;-68
2024/01/05 11:43:45;;;;;;;23.10;14.43;;;5.40;99.90;;;;;;5020694;28;20196;-68
2024/01/05 11:46:11;;;;;;;26.52;15.38;;;5.50;99.90;;;;;;4984532;28;20170;-68
2024/01/05 11:48:37;;;;;;;23.45;15.43;;;5.50;99.90;;;;;;4998664;28;20419;-69
2024/01/05 11:51:02;;;;;;;25.02;15.57;;;5.50;99.90;;;;;;4984572;28;20137;-69
2024/01/05 11:53:29;;;;;;;26.02;15.68;;;5.50;99.90;;;;;;4981935;28;20077;-69
2024/01/05 11:55:59;;;;;;;22.73;14.45;;;5.60;99.90;;;;;;5001024;28;20390;-69
2024/01/05 11:58:33;;;;;;;24.13;15.30;;;5.60;99.90;;;;;;4986931;28;20129;-68
2024/01/05 12:01:05;;;;;;;22.17;14.45;;;5.50;99.90;;;;;;4993238;28;20042;-69
2024/01/05 12:03:31;;;;;;;24.90;14.38;;;5.60;99.90;;;;;;4999929;28;20379;-69
2024/01/05 12:06:01;;;;;;;24.20;14.45;;;5.50;99.90;;;;;;4983160;28;20205;-68
2024/01/05 12:08:27;;;;;;;20.70;14.20;;;5.40;99.90;;;;;;4991713;28;20046;-68
2024/01/05 12:11:00;;;;;;;20.33;13.82;;;5.60;99.90;;;;;;4994690;28;20482;-69
2024/01/05 12:13:32;;;;;;;23.27;14.13;;;5.40;99.90;;;;;;5017768;28;20081;-68
2024/01/05 12:15:58;;;;;;;22.92;13.63;;;5.40;99.90;;;;;;4995768;28;20129;-68
2024/01/05 12:18:30;;;;;;;23.95;14.63;;;5.50;99.90;;;;;;4998091;28;20101;-69
2024/01/05 12:21:03;;;;;;;21.20;14.35;;;5.40;99.90;;;;;;4993033;28;20042;-68
2024/01/05 12:23:32;;;;;;;23.60;14.68;;;5.40;99.90;;;;;;4998770;28;20050;-68
2024/01/05 12:26:08;;;;;;;28.08;14.75;;;5.40;99.90;;;;;;4995528;28;20140;-68
2024/01/05 12:28:39;;;;;;;22.38;13.93;;;5.40;99.90;;;;;;5004022;28;20042;-68
2024/01/05 12:31:07;;;;;;;20.25;13.40;;;5.50;99.90;;;;;;4995165;28;20034;-68
2024/01/05 12:33:37;;;;;;;17.92;12.88;;;5.40;99.90;;;;;;4981733;28;20619;-69
2024/01/05 12:36:12;;;;;;;23.70;14.05;;;5.50;99.90;;;;;;5032580;28;20072;-68
2024/01/05 12:38:38;;;;;;;20.17;13.05;;;5.40;99.90;;;;;;5033113;28;20114;-69